Time;durP1;ratioP1;P1;durP2;ratioP2;P2;SDS_P1;SDS_P2;PMS_P1;PMS_P2;Temp;Humidity;BMP_temperature;BMP_pressure;BME280_temperature;BME280_humidity;BME280_pressure;Samples;Min_cycle;Max_cycle;Signal;HPM_P1;HPM_P2
2022/07/10 00:00:13;;;;;;;4.53;1.60;;;;;;;;;;507122;28;1388;-87
2022/07/10 00:00:31;;;;;;;4.47;1.50;;;;;;;;;;507611;29;1243;-87
2022/07/10 00:00:47;;;;;;;4.28;1.33;;;;;;;;;;505750;29;857;-89
2022/07/10 00:01:03;;;;;;;4.37;1.30;;;;;;;;;;508129;29;1218;-89
2022/07/10 00:01:18;;;;;;;3.83;1.30;;;;;;;;;;509287;29;1202;-87
2022/07/10 00:01:34;;;;;;;3.70;1.40;;;;;;;;;;509169;29;1281;-87
2022/07/10 00:01:49;;;;;;;3.85;1.40;;;;;;;;;;510348;29;1004;-88
2022/07/10 00:02:04;;;;;;;4.57;1.33;;;;;;;;;;511027;29;884;-88
2022/07/10 00:02:20;;;;;;;5.95;1.45;;;;;;;;;;511369;29;864;-88
2022/07/10 00:02:35;;;;;;;7.30;1.50;;;;;;;;;;511198;29;1284;-87
2022/07/10 00:02:52;;;;;;;5.93;1.40;;;;;;;;;;511291;29;809;-87
2022/07/10 00:03:07;;;;;;;5.28;1.50;;;;;;;;;;509565;29;1377;-88
2022/07/10 00:03:23;;;;;;;5.35;1.40;;;;;;;;;;512642;28;1387;-87
2022/07/10 00:03:38;;;;;;;5.90;1.40;;;;;;;;;;509525;29;1427;-87
2022/07/10 00:03:54;;;;;;;6.00;1.50;;;;;;;;;;510074;29;1282;-87
2022/07/10 00:04:09;;;;;;;5.03;1.55;;;;;;;;;;509815;29;969;-87
2022/07/10 00:04:25;;;;;;;4.40;1.60;;;;;;;;;;511727;29;1291;-88
2022/07/10 00:04:40;;;;;;;4.93;1.60;;;;;;;;;;510019;29;798;-87
2022/07/10 00:04:56;;;;;;;5.78;1.70;;;;;;;;;;510044;29;917;-87
2022/07/10 00:05:11;;;;;;;6.37;1.60;;;;;;;;;;510608;29;1174;-87
2022/07/10 00:05:28;;;;;;;6.47;1.50;;;;;;;;;;511294;29;1388;-88
2022/07/10 00:05:43;;;;;;;6.93;1.40;;;;;;;;;;509501;29;944;-87
2022/07/10 00:05:59;;;;;;;5.40;1.37;;;;;;;;;;509390;29;1354;-88
2022/07/10 00:06:14;;;;;;;4.63;1.40;;;;;;;;;;509490;29;841;-87
2022/07/10 00:06:29;;;;;;;4.00;1.30;;;;;;;;;;507458;29;1173;-88
2022/07/10 00:06:46;;;;;;;3.28;1.23;;;;;;;;;;507572;29;1312;-87
2022/07/10 00:07:03;;;;;;;5.18;1.40;;;;;;;;;;505824;29;3443;-87
2022/07/10 00:07:20;;;;;;;4.78;1.52;;;;;;;;;;507339;29;1078;-87
2022/07/10 00:07:35;;;;;;;4.50;1.60;;;;;;;;;;509938;29;943;-87
2022/07/10 00:07:52;;;;;;;4.97;1.50;;;;;;;;;;509093;29;1232;-87
2022/07/10 00:08:07;;;;;;;5.22;1.58;;;;;;;;;;507899;29;1363;-87
2022/07/10 00:08:23;;;;;;;4.50;1.40;;;;;;;;;;508894;29;1486;-87
2022/07/10 00:08:38;;;;;;;4.87;1.40;;;;;;;;;;508939;29;1301;-86
2022/07/10 00:08:55;;;;;;;4.97;1.50;;;;;;;;;;506435;29;1218;-86
2022/07/10 00:09:10;;;;;;;3.92;1.48;;;;;;;;;;508058;29;842;-87
2022/07/10 00:09:27;;;;;;;4.00;1.47;;;;;;;;;;505819;29;1353;-86
2022/07/10 00:09:43;;;;;;;5.15;1.60;;;;;;;;;;505925;29;862;-87
2022/07/10 00:09:58;;;;;;;5.47;1.70;;;;;;;;;;505261;29;897;-86
2022/07/10 00:10:14;;;;;;;4.50;1.58;;;;;;;;;;504585;29;1063;-86
2022/07/10 00:10:30;;;;;;;5.23;1.47;;;;;;;;;;506573;29;1609;-87
2022/07/10 00:10:46;;;;;;;5.68;1.40;;;;;;;;;;509756;29;1293;-86
2022/07/10 00:11:01;;;;;;;5.40;1.50;;;;;;;;;;509906;29;1209;-86
2022/07/10 00:11:16;;;;;;;5.50;1.50;;;;;;;;;;510000;29;1183;-86
2022/07/10 00:11:32;;;;;;;4.65;1.58;;;;;;;;;;509948;29;1228;-87
2022/07/10 00:11:47;;;;;;;4.83;1.50;;;;;;;;;;509933;29;1365;-87
2022/07/10 00:12:05;;;;;;;6.37;1.50;;;;;;;;;;507742;29;1363;-87
2022/07/10 00:12:20;;;;;;;5.35;1.42;;;;;;;;;;508153;29;1314;-86
2022/07/10 00:12:36;;;;;;;4.97;1.60;;;;;;;;;;510068;29;1448;-87
2022/07/10 00:12:52;;;;;;;4.78;1.50;;;;;;;;;;510200;29;814;-86
2022/07/10 00:13:07;;;;;;;4.30;1.50;;;;;;;;;;509474;29;904;-87
2022/07/10 00:13:23;;;;;;;3.90;1.48;;;;;;;;;;505702;29;1304;-87
2022/07/10 00:13:38;;;;;;;4.67;1.50;;;;;;;;;;506154;29;825;-86
2022/07/10 00:13:54;;;;;;;5.40;1.50;;;;;;;;;;508002;29;1169;-86
2022/07/10 00:14:09;;;;;;;6.20;1.40;;;;;;;;;;507532;29;1205;-86
2022/07/10 00:14:25;;;;;;;6.93;1.52;;;;;;;;;;507892;29;1277;-86
2022/07/10 00:14:41;;;;;;;5.00;1.50;;;;;;;;;;508117;29;789;-86
2022/07/10 00:14:56;;;;;;;4.30;1.50;;;;;;;;;;508075;29;1320;-86
2022/07/10 00:15:13;;;;;;;4.25;1.60;;;;;;;;;;508432;29;1323;-87
2022/07/10 00:15:28;;;;;;;3.83;1.40;;;;;;;;;;510061;29;885;-87
2022/07/10 00:15:43;;;;;;;4.97;1.50;;;;;;;;;;509380;29;1198;-87
2022/07/10 00:16:01;;;;;;;7.30;1.65;;;;;;;;;;508592;29;849;-87
2022/07/10 00:16:16;;;;;;;6.85;1.50;;;;;;;;;;510016;29;940;-87
2022/07/10 00:16:32;;;;;;;5.38;1.40;;;;;;;;;;510025;29;897;-85
2022/07/10 00:16:47;;;;;;;4.83;1.57;;;;;;;;;;509502;29;1956;-86
2022/07/10 00:17:03;;;;;;;4.93;1.60;;;;;;;;;;510024;29;1173;-86
2022/07/10 00:17:18;;;;;;;5.45;1.70;;;;;;;;;;507980;29;1301;-86
2022/07/10 00:17:35;;;;;;;5.22;1.58;;;;;;;;;;506560;29;1185;-87
2022/07/10 00:17:50;;;;;;;4.78;1.40;;;;;;;;;;507974;29;1281;-86
2022/07/10 00:18:06;;;;;;;4.15;1.33;;;;;;;;;;508095;29;1244;-87
2022/07/10 00:18:21;;;;;;;3.47;1.30;;;;;;;;;;508249;29;889;-87
2022/07/10 00:18:37;;;;;;;3.88;1.50;;;;;;;;;;507679;29;865;-86
2022/07/10 00:18:52;;;;;;;4.20;1.53;;;;;;;;;;506044;29;857;-86
2022/07/10 00:19:08;;;;;;;5.18;1.60;;;;;;;;;;506425;29;1224;-87
2022/07/10 00:19:23;;;;;;;5.23;1.50;;;;;;;;;;508688;29;810;-86
2022/07/10 00:19:39;;;;;;;4.15;1.50;;;;;;;;;;507542;29;1333;-87
2022/07/10 00:19:55;;;;;;;4.00;1.40;;;;;;;;;;508057;29;1271;-86
2022/07/10 00:20:12;;;;;;;4.28;1.30;;;;;;;;;;509763;29;1310;-87
2022/07/10 00:20:27;;;;;;;4.55;1.40;;;;;;;;;;511909;29;1432;-86
2022/07/10 00:20:43;;;;;;;4.03;1.45;;;;;;;;;;511910;29;1326;-87
2022/07/10 00:20:58;;;;;;;5.07;1.50;;;;;;;;;;509996;29;1295;-87
2022/07/10 00:21:14;;;;;;;5.47;1.42;;;;;;;;;;512066;29;1252;-87
2022/07/10 00:21:29;;;;;;;5.50;1.40;;;;;;;;;;510002;29;1189;-87
2022/07/10 00:21:45;;;;;;;4.68;1.45;;;;;;;;;;511896;29;1408;-87
2022/07/10 00:22:00;;;;;;;4.27;1.67;;;;;;;;;;508118;29;1404;-87
2022/07/10 00:22:16;;;;;;;5.35;1.63;;;;;;;;;;508193;29;957;-86
2022/07/10 00:22:34;;;;;;;5.47;1.47;;;;;;;;;;508004;29;909;-87
2022/07/10 00:22:49;;;;;;;6.35;1.55;;;;;;;;;;506953;29;920;-87
2022/07/10 00:23:05;;;;;;;5.55;1.55;;;;;;;;;;506769;29;1386;-86
2022/07/10 00:23:20;;;;;;;3.80;1.50;;;;;;;;;;509889;29;1345;-86
2022/07/10 00:23:36;;;;;;;3.97;1.40;;;;;;;;;;509925;29;1209;-87
2022/07/10 00:23:51;;;;;;;5.03;1.30;;;;;;;;;;509901;29;1195;-86
2022/07/10 00:24:07;;;;;;;4.25;1.20;;;;;;;;;;510151;29;809;-87
2022/07/10 00:24:22;;;;;;;4.63;1.47;;;;;;;;;;509841;29;1281;-87
2022/07/10 00:24:39;;;;;;;5.68;1.70;;;;;;;;;;510141;29;1396;-87
2022/07/10 00:24:55;;;;;;;5.13;1.75;;;;;;;;;;507770;29;1292;-87
2022/07/10 00:25:14;;;;;;;5.60;1.63;;;;;;;;;;506667;29;870;-87
2022/07/10 00:25:30;;;;;;;4.68;1.50;;;;;;;;;;505308;29;1305;-86
2022/07/10 00:25:45;;;;;;;4.07;1.48;;;;;;;;;;505023;29;1133;-87
2022/07/10 00:26:01;;;;;;;4.35;1.48;;;;;;;;;;504193;29;1287;-86
2022/07/10 00:26:16;;;;;;;4.97;1.63;;;;;;;;;;504125;29;1443;-87
2022/07/10 00:26:31;;;;;;;5.00;1.50;;;;;;;;;;504161;29;874;-87
2022/07/10 00:26:47;;;;;;;4.53;1.57;;;;;;;;;;506037;29;1293;-87
2022/07/10 00:27:03;;;;;;;3.45;1.50;;;;;;;;;;505957;29;1321;-85
2022/07/10 00:27:18;;;;;;;4.07;1.30;;;;;;;;;;508095;29;1167;-87
2022/07/10 00:27:34;;;;;;;4.72;1.33;;;;;;;;;;504265;29;1261;-86
2022/07/10 00:27:49;;;;;;;5.37;1.50;;;;;;;;;;506189;29;1156;-87
2022/07/10 00:28:04;;;;;;;5.18;1.60;;;;;;;;;;506171;29;988;-86
2022/07/10 00:28:20;;;;;;;4.80;1.50;;;;;;;;;;506078;29;1268;-86
2022/07/10 00:28:36;;;;;;;4.83;1.43;;;;;;;;;;505985;29;1198;-87
2022/07/10 00:28:52;;;;;;;3.90;1.33;;;;;;;;;;502204;29;1532;-86
2022/07/10 00:29:08;;;;;;;4.17;1.30;;;;;;;;;;502056;29;1320;-87
2022/07/10 00:29:24;;;;;;;5.13;1.50;;;;;;;;;;502720;29;880;-87
2022/07/10 00:29:39;;;;;;;6.17;1.70;;;;;;;;;;504462;29;1326;-86
2022/07/10 00:29:54;;;;;;;8.10;1.73;;;;;;;;;;506460;29;1147;-86
2022/07/10 00:30:10;;;;;;;6.07;1.42;;;;;;;;;;504131;29;1387;-87
2022/07/10 00:30:26;;;;;;;3.35;1.40;;;;;;;;;;504149;29;821;-87
2022/07/10 00:30:41;;;;;;;4.23;1.70;;;;;;;;;;504113;29;809;-87
2022/07/10 00:30:57;;;;;;;5.53;1.60;;;;;;;;;;504182;29;1302;-87
2022/07/10 00:31:12;;;;;;;4.60;1.40;;;;;;;;;;505993;29;1253;-86
2022/07/10 00:31:27;;;;;;;4.10;1.30;;;;;;;;;;504025;29;1167;-86
2022/07/10 00:31:43;;;;;;;4.77;1.30;;;;;;;;;;503683;29;1292;-86
2022/07/10 00:31:58;;;;;;;4.80;1.40;;;;;;;;;;502397;29;1505;-87
2022/07/10 00:32:14;;;;;;;5.57;1.57;;;;;;;;;;504083;29;988;-86
2022/07/10 00:32:29;;;;;;;4.70;1.57;;;;;;;;;;506420;29;1179;-86
2022/07/10 00:32:45;;;;;;;4.05;1.38;;;;;;;;;;504055;29;1208;-86
2022/07/10 00:33:00;;;;;;;4.03;1.20;;;;;;;;;;502182;29;1271;-87
2022/07/10 00:33:16;;;;;;;5.05;1.35;;;;;;;;;;503736;29;1200;-87
2022/07/10 00:33:32;;;;;;;6.80;1.60;;;;;;;;;;504209;29;1278;-87
2022/07/10 00:33:48;;;;;;;5.32;1.45;;;;;;;;;;506201;29;1200;-87
2022/07/10 00:34:03;;;;;;;3.85;1.40;;;;;;;;;;505264;29;1285;-86
2022/07/10 00:34:18;;;;;;;3.57;1.40;;;;;;;;;;504309;29;1228;-87
2022/07/10 00:34:35;;;;;;;5.40;1.50;;;;;;;;;;506121;29;1199;-86
2022/07/10 00:34:51;;;;;;;6.07;1.60;;;;;;;;;;509812;29;1672;-86
2022/07/10 00:35:06;;;;;;;5.10;1.65;;;;;;;;;;507983;29;1168;-86
2022/07/10 00:35:22;;;;;;;5.35;1.50;;;;;;;;;;508009;29;806;-86
2022/07/10 00:35:37;;;;;;;4.53;1.50;;;;;;;;;;507848;29;1178;-86
2022/07/10 00:35:53;;;;;;;4.90;1.50;;;;;;;;;;507944;29;900;-87
2022/07/10 00:36:09;;;;;;;4.47;1.40;;;;;;;;;;507932;29;1332;-86
2022/07/10 00:36:24;;;;;;;4.80;1.60;;;;;;;;;;508010;29;1225;-86
2022/07/10 00:36:39;;;;;;;6.03;1.67;;;;;;;;;;506021;29;1970;-86
2022/07/10 00:36:55;;;;;;;4.77;1.50;;;;;;;;;;505955;29;984;-87
2022/07/10 00:37:10;;;;;;;6.73;1.60;;;;;;;;;;505939;29;1310;-86
2022/07/10 00:37:26;;;;;;;7.22;1.67;;;;;;;;;;506070;29;1218;-86
2022/07/10 00:37:42;;;;;;;5.25;1.70;;;;;;;;;;506222;29;1361;-86
2022/07/10 00:37:57;;;;;;;5.77;1.70;;;;;;;;;;505808;29;1257;-86
2022/07/10 00:38:12;;;;;;;5.82;1.60;;;;;;;;;;505834;29;1381;-87
2022/07/10 00:38:28;;;;;;;5.70;1.60;;;;;;;;;;508101;29;1197;-86
2022/07/10 00:38:43;;;;;;;5.07;1.70;;;;;;;;;;506118;29;1254;-86
2022/07/10 00:38:59;;;;;;;4.88;1.70;;;;;;;;;;504131;29;1178;-86
2022/07/10 00:39:14;;;;;;;4.45;1.60;;;;;;;;;;503994;29;1473;-86
2022/07/10 00:39:30;;;;;;;5.30;1.50;;;;;;;;;;504068;29;1361;-87
2022/07/10 00:39:45;;;;;;;5.90;1.40;;;;;;;;;;506915;29;1260;-86
2022/07/10 00:40:01;;;;;;;5.57;1.50;;;;;;;;;;506053;29;1177;-86
2022/07/10 00:40:16;;;;;;;6.00;1.50;;;;;;;;;;504270;29;1571;-86
2022/07/10 00:40:31;;;;;;;5.90;1.48;;;;;;;;;;500472;29;1175;-87
2022/07/10 00:40:47;;;;;;;4.80;1.50;;;;;;;;;;504353;29;1237;-87
2022/07/10 00:41:03;;;;;;;3.73;1.50;;;;;;;;;;506169;29;1017;-86
2022/07/10 00:41:19;;;;;;;4.47;1.40;;;;;;;;;;506423;29;1307;-86
2022/07/10 00:41:34;;;;;;;5.43;1.50;;;;;;;;;;506025;29;1294;-86
2022/07/10 00:41:50;;;;;;;6.05;1.77;;;;;;;;;;506516;29;818;-86
2022/07/10 00:42:07;;;;;;;5.67;1.70;;;;;;;;;;507882;29;1261;-86
2022/07/10 00:42:23;;;;;;;4.70;1.35;;;;;;;;;;506614;29;1320;-87
2022/07/10 00:42:38;;;;;;;4.30;1.30;;;;;;;;;;509978;29;1190;-86
2022/07/10 00:42:54;;;;;;;3.67;1.40;;;;;;;;;;510028;29;1054;-86
2022/07/10 00:43:09;;;;;;;3.73;1.50;;;;;;;;;;508128;29;1269;-87
2022/07/10 00:43:25;;;;;;;4.15;1.50;;;;;;;;;;507556;29;798;-87
2022/07/10 00:44:00;;;;;;;4.73;1.43;;;;;;;;;;506042;29;1200;-87
2022/07/10 00:44:15;;;;;;;3.92;1.35;;;;;;;;;;505906;29;888;-86
2022/07/10 00:44:31;;;;;;;4.37;1.30;;;;;;;;;;504100;29;1150;-86
2022/07/10 00:44:46;;;;;;;4.70;1.50;;;;;;;;;;505883;29;1041;-86
2022/07/10 00:45:02;;;;;;;4.67;1.50;;;;;;;;;;506875;29;1420;-86
2022/07/10 00:45:17;;;;;;;5.20;1.50;;;;;;;;;;508195;29;1397;-86
2022/07/10 00:45:32;;;;;;;6.27;1.60;;;;;;;;;;507090;29;1152;-87
2022/07/10 00:45:49;;;;;;;6.63;1.60;;;;;;;;;;508046;29;1309;-86
2022/07/10 00:46:04;;;;;;;5.70;1.60;;;;;;;;;;508021;29;774;-86
2022/07/10 00:46:20;;;;;;;5.72;1.67;;;;;;;;;;508450;29;897;-87
2022/07/10 00:46:35;;;;;;;5.38;1.42;;;;;;;;;;508009;29;1275;-86
2022/07/10 00:46:51;;;;;;;4.97;1.33;;;;;;;;;;508114;29;868;-86
2022/07/10 00:47:07;;;;;;;4.47;1.35;;;;;;;;;;506390;29;1162;-86
2022/07/10 00:47:23;;;;;;;4.80;1.42;;;;;;;;;;508437;29;1243;-87
2022/07/10 00:47:38;;;;;;;4.57;1.48;;;;;;;;;;508442;29;1349;-86
2022/07/10 00:47:54;;;;;;;4.87;1.40;;;;;;;;;;508100;29;1168;-87
2022/07/10 00:48:09;;;;;;;5.27;1.43;;;;;;;;;;507972;29;1195;-86
2022/07/10 00:48:24;;;;;;;5.53;1.58;;;;;;;;;;509885;29;1286;-86
2022/07/10 00:48:40;;;;;;;4.50;1.43;;;;;;;;;;509990;29;1090;-87
2022/07/10 00:48:56;;;;;;;4.20;1.40;;;;;;;;;;510544;29;754;-87
2022/07/10 00:49:12;;;;;;;5.25;1.50;;;;;;;;;;511685;29;999;-86
2022/07/10 00:49:27;;;;;;;4.60;1.53;;;;;;;;;;507815;29;1440;-87
2022/07/10 00:49:43;;;;;;;3.47;1.40;;;;;;;;;;505689;29;1289;-87
2022/07/10 00:49:58;;;;;;;3.47;1.50;;;;;;;;;;505852;29;1267;-86
2022/07/10 00:50:14;;;;;;;4.43;1.60;;;;;;;;;;506257;29;826;-86
2022/07/10 00:50:29;;;;;;;5.73;1.60;;;;;;;;;;507756;29;1280;-87
2022/07/10 00:50:45;;;;;;;6.03;1.77;;;;;;;;;;507770;29;1274;-87
2022/07/10 00:51:01;;;;;;;6.15;1.90;;;;;;;;;;507966;29;1253;-86
2022/07/10 00:51:18;;;;;;;6.73;1.67;;;;;;;;;;507810;29;1166;-86
2022/07/10 00:51:34;;;;;;;6.40;1.50;;;;;;;;;;508021;29;893;-87
2022/07/10 00:51:50;;;;;;;5.72;1.50;;;;;;;;;;508103;29;837;-86
2022/07/10 00:52:13;;;;;;;4.40;1.48;;;;;;;;;;508134;29;873;-87
2022/07/10 00:52:29;;;;;;;4.28;1.50;;;;;;;;;;509714;29;912;-87
2022/07/10 00:52:46;;;;;;;5.75;1.58;;;;;;;;;;508189;29;936;-86
2022/07/10 00:53:02;;;;;;;6.93;1.70;;;;;;;;;;508051;29;1284;-87
2022/07/10 00:53:18;;;;;;;6.13;1.60;;;;;;;;;;510237;29;813;-86
2022/07/10 00:53:33;;;;;;;5.80;1.70;;;;;;;;;;509921;29;972;-86
2022/07/10 00:53:49;;;;;;;5.33;1.70;;;;;;;;;;507948;29;1182;-86
2022/07/10 00:54:05;;;;;;;4.15;1.60;;;;;;;;;;505911;29;1277;-86
2022/07/10 00:54:21;;;;;;;4.88;1.52;;;;;;;;;;506079;29;1427;-86
2022/07/10 00:54:38;;;;;;;5.10;1.58;;;;;;;;;;506087;29;952;-87
2022/07/10 00:54:53;;;;;;;4.38;1.58;;;;;;;;;;506706;29;1417;-86
2022/07/10 00:55:09;;;;;;;4.70;1.43;;;;;;;;;;508186;29;1393;-86
2022/07/10 00:55:25;;;;;;;5.63;1.60;;;;;;;;;;507997;29;1028;-86
2022/07/10 00:55:42;;;;;;;4.40;1.67;;;;;;;;;;509177;29;1056;-87
2022/07/10 00:55:58;;;;;;;3.47;1.60;;;;;;;;;;510975;29;1397;-87
2022/07/10 00:56:23;;;;;;;5.50;1.60;;;;;;;;;;509305;29;1381;-87
2022/07/10 00:56:39;;;;;;;5.53;1.55;;;;;;;;;;509914;29;1000;-86
2022/07/10 00:56:55;;;;;;;6.72;1.80;;;;;;;;;;508044;29;1102;-86
2022/07/10 00:57:12;;;;;;;6.07;1.67;;;;;;;;;;510016;29;1310;-86
2022/07/10 00:57:28;;;;;;;3.95;1.40;;;;;;;;;;508080;29;1240;-86
2022/07/10 00:57:43;;;;;;;4.00;1.33;;;;;;;;;;507400;29;922;-86
2022/07/10 00:57:59;;;;;;;3.37;1.30;;;;;;;;;;508053;29;1190;-86
2022/07/10 00:58:14;;;;;;;4.00;1.50;;;;;;;;;;506334;29;1255;-86
2022/07/10 00:58:30;;;;;;;5.93;1.60;;;;;;;;;;506715;29;1128;-87
2022/07/10 00:58:47;;;;;;;5.07;1.40;;;;;;;;;;508123;29;821;-87
2022/07/10 00:59:03;;;;;;;4.15;1.40;;;;;;;;;;507262;29;1457;-86
2022/07/10 00:59:18;;;;;;;5.67;1.57;;;;;;;;;;506265;29;928;-86
2022/07/10 00:59:35;;;;;;;5.65;1.50;;;;;;;;;;504075;29;1333;-87
2022/07/10 00:59:52;;;;;;;4.95;1.60;;;;;;;;;;506728;29;1631;-86
2022/07/10 01:00:11;;;;;;;5.50;1.60;;;;;;;;;;508719;29;849;-86
2022/07/10 01:00:26;;;;;;;5.00;1.45;;;;;;;;;;507763;29;1273;-86
2022/07/10 01:00:42;;;;;;;5.43;1.50;;;;;;;;;;507895;29;976;-86
2022/07/10 01:00:57;;;;;;;5.40;1.67;;;;;;;;;;508306;29;1178;-86
2022/07/10 01:01:13;;;;;;;4.97;1.60;;;;;;;;;;508188;29;1047;-87
2022/07/10 01:01:29;;;;;;;3.55;1.33;;;;;;;;;;508187;29;1294;-86
2022/07/10 01:01:44;;;;;;;4.20;1.50;;;;;;;;;;507934;29;889;-88
2022/07/10 01:02:01;;;;;;;5.03;1.60;;;;;;;;;;508133;29;1250;-87
2022/07/10 01:02:17;;;;;;;5.03;1.60;;;;;;;;;;508108;29;1264;-87
2022/07/10 01:02:32;;;;;;;4.55;1.40;;;;;;;;;;508165;29;786;-87
2022/07/10 01:02:48;;;;;;;4.97;1.52;;;;;;;;;;507939;29;1058;-87
2022/07/10 01:03:04;;;;;;;5.10;1.40;;;;;;;;;;507845;29;1333;-86
2022/07/10 01:03:19;;;;;;;5.68;1.40;;;;;;;;;;508596;29;1430;-86
2022/07/10 01:03:34;;;;;;;6.73;1.43;;;;;;;;;;510092;29;889;-86
2022/07/10 01:03:51;;;;;;;6.67;1.50;;;;;;;;;;509903;29;1198;-86
2022/07/10 01:04:06;;;;;;;5.72;1.60;;;;;;;;;;509685;29;1370;-86
2022/07/10 01:04:21;;;;;;;4.80;1.43;;;;;;;;;;508317;29;1147;-86
2022/07/10 01:04:37;;;;;;;4.77;1.50;;;;;;;;;;505796;29;1150;-87
2022/07/10 01:04:52;;;;;;;4.88;1.50;;;;;;;;;;505516;29;858;-86
2022/07/10 01:05:10;;;;;;;5.93;1.47;;;;;;;;;;503727;29;921;-86
2022/07/10 01:05:25;;;;;;;5.93;1.50;;;;;;;;;;504097;29;1506;-86
2022/07/10 01:05:41;;;;;;;4.32;1.30;;;;;;;;;;504799;29;1063;-86
2022/07/10 01:05:58;;;;;;;5.33;1.50;;;;;;;;;;503792;29;1172;-86
2022/07/10 01:06:14;;;;;;;5.95;1.50;;;;;;;;;;504692;29;1330;-86
2022/07/10 01:06:30;;;;;;;5.57;1.40;;;;;;;;;;506780;29;901;-86
2022/07/10 01:06:45;;;;;;;4.55;1.38;;;;;;;;;;506914;29;1329;-85
2022/07/10 01:07:00;;;;;;;3.77;1.40;;;;;;;;;;508038;29;1265;-86
2022/07/10 01:07:16;;;;;;;4.00;1.50;;;;;;;;;;508017;29;1307;-86
2022/07/10 01:07:31;;;;;;;6.10;1.70;;;;;;;;;;506108;29;1294;-86
2022/07/10 01:07:47;;;;;;;6.60;1.60;;;;;;;;;;506036;29;865;-86
2022/07/10 01:08:02;;;;;;;6.45;1.60;;;;;;;;;;506452;29;1188;-86
2022/07/10 01:08:17;;;;;;;6.40;1.60;;;;;;;;;;506028;29;1170;-87
2022/07/10 01:08:33;;;;;;;5.18;1.50;;;;;;;;;;505708;29;1273;-86
2022/07/10 01:08:49;;;;;;;4.47;1.40;;;;;;;;;;504189;29;827;-86
2022/07/10 01:09:04;;;;;;;4.47;1.52;;;;;;;;;;504061;29;1203;-86
2022/07/10 01:09:20;;;;;;;4.93;1.73;;;;;;;;;;506406;29;1329;-86
2022/07/10 01:09:37;;;;;;;5.03;1.63;;;;;;;;;;507917;29;1446;-86
2022/07/10 01:09:52;;;;;;;5.03;1.42;;;;;;;;;;507996;29;1251;-86
2022/07/10 01:10:08;;;;;;;6.27;1.50;;;;;;;;;;509717;29;1411;-86
2022/07/10 01:10:23;;;;;;;6.57;1.60;;;;;;;;;;510013;29;854;-86
2022/07/10 01:10:39;;;;;;;6.23;1.60;;;;;;;;;;509952;29;856;-86
2022/07/10 01:10:55;;;;;;;6.65;1.60;;;;;;;;;;507414;29;1498;-86
2022/07/10 01:11:10;;;;;;;4.43;1.40;;;;;;;;;;506018;29;1250;-86
2022/07/10 01:11:25;;;;;;;4.50;1.43;;;;;;;;;;505858;29;794;-86
2022/07/10 01:11:41;;;;;;;5.72;1.48;;;;;;;;;;503007;29;1253;-86
2022/07/10 01:12:01;;;;;;;5.63;1.50;;;;;;;;;;502522;29;751;-86
2022/07/10 01:12:17;;;;;;;4.82;1.60;;;;;;;;;;503868;29;928;-86
2022/07/10 01:12:33;;;;;;;4.37;1.63;;;;;;;;;;505122;29;1070;-85
2022/07/10 01:12:48;;;;;;;4.93;1.50;;;;;;;;;;507744;29;1272;-86
2022/07/10 01:13:03;;;;;;;4.13;1.33;;;;;;;;;;508729;29;806;-86
2022/07/10 01:13:19;;;;;;;4.43;1.50;;;;;;;;;;508706;29;876;-86
2022/07/10 01:13:35;;;;;;;5.78;1.70;;;;;;;;;;506786;29;1335;-86
2022/07/10 01:13:50;;;;;;;4.57;1.63;;;;;;;;;;507845;29;840;-86
2022/07/10 01:14:06;;;;;;;3.90;1.50;;;;;;;;;;508576;29;1238;-86
2022/07/10 01:14:22;;;;;;;5.10;1.50;;;;;;;;;;510056;29;897;-86
2022/07/10 01:14:39;;;;;;;4.50;1.40;;;;;;;;;;509434;29;1035;-86
2022/07/10 01:14:55;;;;;;;4.90;1.40;;;;;;;;;;507990;29;865;-86
2022/07/10 01:15:10;;;;;;;5.88;1.45;;;;;;;;;;507851;29;892;-86
2022/07/10 01:15:26;;;;;;;5.75;1.50;;;;;;;;;;508865;29;789;-86
2022/07/10 01:15:42;;;;;;;7.00;1.60;;;;;;;;;;508020;29;1324;-86
2022/07/10 01:15:57;;;;;;;6.18;1.60;;;;;;;;;;508572;29;929;-86
2022/07/10 01:16:13;;;;;;;4.80;1.42;;;;;;;;;;507902;29;1285;-86
2022/07/10 01:16:29;;;;;;;4.73;1.40;;;;;;;;;;507839;29;1211;-86
2022/07/10 01:16:45;;;;;;;5.03;1.40;;;;;;;;;;507772;29;1919;-86
2022/07/10 01:17:00;;;;;;;5.80;1.50;;;;;;;;;;508120;29;1008;-86
2022/07/10 01:17:16;;;;;;;5.40;1.60;;;;;;;;;;506012;29;1294;-86
2022/07/10 01:17:32;;;;;;;4.93;1.38;;;;;;;;;;504669;29;940;-86
2022/07/10 01:17:49;;;;;;;4.83;1.37;;;;;;;;;;506132;29;921;-86
2022/07/10 01:18:04;;;;;;;5.45;1.30;;;;;;;;;;506705;29;971;-86
2022/07/10 01:18:20;;;;;;;6.18;1.48;;;;;;;;;;507994;29;1186;-86
2022/07/10 01:18:35;;;;;;;6.37;1.70;;;;;;;;;;507681;29;1289;-86
2022/07/10 01:18:51;;;;;;;4.97;1.47;;;;;;;;;;507878;29;838;-86
2022/07/10 01:19:07;;;;;;;4.25;1.35;;;;;;;;;;508409;29;1186;-86
2022/07/10 01:19:22;;;;;;;4.78;1.40;;;;;;;;;;509911;29;881;-86
2022/07/10 01:19:37;;;;;;;6.50;1.40;;;;;;;;;;509743;29;1344;-86
2022/07/10 01:19:53;;;;;;;6.25;1.30;;;;;;;;;;509992;29;921;-86
2022/07/10 01:20:09;;;;;;;5.03;1.20;;;;;;;;;;509861;29;1315;-86
2022/07/10 01:20:31;;;;;;;6.05;1.45;;;;;;;;;;507745;29;1209;-86
2022/07/10 01:20:54;;;;;;;5.78;1.48;;;;;;;;;;507676;29;893;-86
2022/07/10 01:21:31;;;;;;;4.97;1.33;;;;;;;;;;505689;29;842;-86
2022/07/10 01:21:46;;;;;;;5.32;1.30;;;;;;;;;;503704;29;1262;-86
2022/07/10 01:22:02;;;;;;;5.22;1.30;;;;;;;;;;506731;29;1179;-86
2022/07/10 01:22:17;;;;;;;3.83;1.40;;;;;;;;;;508774;29;1215;-86
2022/07/10 01:22:33;;;;;;;3.63;1.50;;;;;;;;;;509866;29;1306;-86
2022/07/10 01:22:48;;;;;;;3.88;1.50;;;;;;;;;;509805;29;1235;-86
2022/07/10 01:23:03;;;;;;;4.90;1.40;;;;;;;;;;509699;29;817;-86
2022/07/10 01:23:19;;;;;;;5.55;1.40;;;;;;;;;;508054;29;1226;-86
2022/07/10 01:23:35;;;;;;;5.32;1.40;;;;;;;;;;507808;29;947;-86
2022/07/10 01:23:50;;;;;;;5.10;1.50;;;;;;;;;;507729;29;1079;-86
2022/07/10 01:24:09;;;;;;;5.10;1.50;;;;;;;;;;507760;29;873;-86
2022/07/10 01:24:24;;;;;;;6.00;1.55;;;;;;;;;;508432;29;1227;-86
2022/07/10 01:24:39;;;;;;;3.90;1.47;;;;;;;;;;509651;29;1178;-86
2022/07/10 01:24:55;;;;;;;3.55;1.30;;;;;;;;;;509675;29;941;-86
2022/07/10 01:25:11;;;;;;;4.87;1.40;;;;;;;;;;509690;29;1300;-86
2022/07/10 01:25:26;;;;;;;5.78;1.50;;;;;;;;;;509883;29;885;-86
2022/07/10 01:25:41;;;;;;;5.83;1.50;;;;;;;;;;509965;29;868;-86
2022/07/10 01:25:57;;;;;;;5.78;1.50;;;;;;;;;;509912;29;909;-86
2022/07/10 01:26:12;;;;;;;5.30;1.40;;;;;;;;;;509782;29;1268;-86
2022/07/10 01:26:28;;;;;;;5.15;1.30;;;;;;;;;;509445;29;810;-86
2022/07/10 01:26:43;;;;;;;5.37;1.47;;;;;;;;;;507690;29;1243;-86
2022/07/10 01:26:58;;;;;;;4.88;1.42;;;;;;;;;;507720;29;1254;-86
2022/07/10 01:27:14;;;;;;;4.90;1.40;;;;;;;;;;507859;29;1175;-86
2022/07/10 01:27:29;;;;;;;4.53;1.50;;;;;;;;;;507193;29;999;-86
2022/07/10 01:27:44;;;;;;;5.40;1.63;;;;;;;;;;507733;29;1197;-86
2022/07/10 01:28:00;;;;;;;6.30;1.60;;;;;;;;;;508385;29;1283;-85
2022/07/10 01:28:16;;;;;;;5.82;1.45;;;;;;;;;;507717;29;1203;-86
2022/07/10 01:28:32;;;;;;;4.63;1.43;;;;;;;;;;508158;29;1253;-86
2022/07/10 01:28:49;;;;;;;8.18;1.52;;;;;;;;;;508389;29;1404;-85
2022/07/10 01:29:06;;;;;;;9.38;1.50;;;;;;;;;;505998;29;1650;-86
2022/07/10 01:29:22;;;;;;;5.47;1.35;;;;;;;;;;507680;29;1480;-85
2022/07/10 01:29:38;;;;;;;6.82;1.55;;;;;;;;;;506596;29;1446;-86
2022/07/10 01:29:54;;;;;;;7.00;1.63;;;;;;;;;;508040;29;904;-86
2022/07/10 01:30:10;;;;;;;4.73;1.43;;;;;;;;;;507905;29;1310;-86
2022/07/10 01:30:26;;;;;;;3.90;1.40;;;;;;;;;;507533;29;1314;-86
2022/07/10 01:30:41;;;;;;;5.03;1.35;;;;;;;;;;506690;29;1654;-86
2022/07/10 01:30:57;;;;;;;5.60;1.40;;;;;;;;;;507830;29;905;-85
2022/07/10 01:31:12;;;;;;;5.23;1.40;;;;;;;;;;507757;29;829;-86
2022/07/10 01:31:28;;;;;;;5.60;1.40;;;;;;;;;;508405;29;1063;-86
2022/07/10 01:31:43;;;;;;;6.23;1.40;;;;;;;;;;507802;29;1174;-86
2022/07/10 01:32:00;;;;;;;6.50;1.52;;;;;;;;;;507475;29;793;-86
2022/07/10 01:32:16;;;;;;;5.35;1.50;;;;;;;;;;505812;29;818;-86
2022/07/10 01:32:39;;;;;;;3.93;1.30;;;;;;;;;;506525;29;1304;-86
2022/07/10 01:32:54;;;;;;;5.13;1.45;;;;;;;;;;508199;29;1262;-86
2022/07/10 01:33:10;;;;;;;6.65;1.55;;;;;;;;;;509812;29;806;-86
2022/07/10 01:33:25;;;;;;;5.28;1.48;;;;;;;;;;507874;29;1327;-86
2022/07/10 01:33:41;;;;;;;4.40;1.30;;;;;;;;;;509401;29;776;-85
2022/07/10 01:33:57;;;;;;;4.95;1.30;;;;;;;;;;509693;29;1468;-86
2022/07/10 01:34:12;;;;;;;5.43;1.40;;;;;;;;;;509755;29;814;-86
2022/07/10 01:34:28;;;;;;;6.03;1.45;;;;;;;;;;508324;29;1328;-86
2022/07/10 01:34:43;;;;;;;5.57;1.50;;;;;;;;;;508099;29;1166;-86
2022/07/10 01:34:58;;;;;;;4.50;1.35;;;;;;;;;;509731;29;833;-86
2022/07/10 01:35:15;;;;;;;4.47;1.30;;;;;;;;;;509558;29;1067;-86
2022/07/10 01:35:30;;;;;;;5.78;1.40;;;;;;;;;;511413;29;1354;-86
2022/07/10 01:35:45;;;;;;;5.32;1.60;;;;;;;;;;511391;29;1336;-86
2022/07/10 01:36:01;;;;;;;4.70;1.60;;;;;;;;;;509929;29;1178;-86
2022/07/10 01:36:17;;;;;;;5.80;1.70;;;;;;;;;;509563;29;1212;-86
2022/07/10 01:36:33;;;;;;;6.13;1.80;;;;;;;;;;509408;29;1413;-86
2022/07/10 01:36:48;;;;;;;5.63;1.70;;;;;;;;;;509523;29;1954;-86
2022/07/10 01:37:03;;;;;;;5.47;1.53;;;;;;;;;;508611;29;1035;-86
2022/07/10 01:37:19;;;;;;;4.50;1.40;;;;;;;;;;507937;29;1323;-86
2022/07/10 01:37:34;;;;;;;4.18;1.50;;;;;;;;;;507421;29;1004;-86
2022/07/10 01:37:50;;;;;;;5.27;1.60;;;;;;;;;;505710;29;1322;-86
2022/07/10 01:38:06;;;;;;;6.13;1.50;;;;;;;;;;506074;29;1155;-87
2022/07/10 01:38:21;;;;;;;6.07;1.60;;;;;;;;;;507743;29;857;-86
2022/07/10 01:38:37;;;;;;;5.90;1.60;;;;;;;;;;507773;29;908;-86
2022/07/10 01:38:54;;;;;;;5.97;1.55;;;;;;;;;;507828;29;1241;-86
2022/07/10 01:39:09;;;;;;;4.60;1.48;;;;;;;;;;508322;29;865;-86